Auburn, IN

1:02 PM EDT on October 21, 2017 (GMT -0400)
Auburn

Weather History for KGWB - November, 2011

Change the Weather History Date:

Tuesday, November 29, 2011

  Actual Average (KFWA) Record (KFWA)
Temperature  
Mean Temperature 36 °F -  
Max Temperature 39 °F 40 °F 67 °F (1927)
Min Temperature 32 °F 28 °F 2 °F (1929)
Degree Days  
Heating Degree Days 30    
Moisture  
Dew Point 34 °F    
Average Humidity 94    
Maximum Humidity 100    
Minimum Humidity 93    
Precipitation  
Precipitation 1.69 in - - ()
Sea Level Pressure  
Sea Level Pressure 29.72 in    
Wind  
Wind Speed 13 mph (North)    
Max Wind Speed 21 mph    
Max Gust Speed 31 mph    
Visibility 3 miles    
Events Rain , Snow    
Averages and records for this station are not official NWS values.
T = Trace of Precipitation, MM = Missing Value Source: NWS Daily Summary

Daily Weather History Graph

Daily Weather History Graph

Search for Another Location

Airport or City:

Trip Planner

Search our weather history database for the weather conditions in past years. The results will help you decide how hot, cold, wet, or windy it might be!

Date:

Astronomy

Nov. 29, 2011 Rise Set
Actual Time 7:44 AM EST 5:12 PM EST
Civil Twilight 7:13 AM EST 5:43 PM EST
Nautical Twilight 6:39 AM EST 6:17 PM EST
Astronomical Twilight 6:06 AM EST 6:50 PM EST
Moon 11:29 AM EST (11/29) 10:06 PM EST (11/29)
Length of Visible Light 10h 29m
Length of Day
9h 28m
Waxing Crescent, 24% of the Moon is Illuminated
Nov 29
Waxing Crescent
Dec 2
First Quarter
Dec 10
Full
Dec 17
Last Quarter
Dec 24
New

Hourly Weather History & Observations

Time (EST) Temp. Windchill Dew Point Humidity Pressure Visibility Wind Dir Wind Speed Gust Speed Precip Events Conditions
12:15 AM 37.4 °F 29.3 °F 37.4 °F 100% 29.85 in 3.0 mi NE 12.7 mph - 0.07 in Rain Heavy Rain
12:35 AM 37.4 °F 29.8 °F 37.4 °F 100% 29.85 in 4.0 mi NNE 11.5 mph - 0.13 in Rain Rain
12:55 AM 37.4 °F 29.8 °F 37.4 °F 100% 29.83 in 4.0 mi NNE 11.5 mph - 0.18 in Rain Rain
1:15 AM 37.4 °F 28.9 °F 37.4 °F 100% 29.82 in 5.0 mi NNE 13.8 mph - 0.04 in Rain Rain
1:35 AM 37.4 °F 29.3 °F 37.4 °F 100% 29.81 in 4.0 mi NNE 12.7 mph 20.7 mph 0.09 in Rain Rain
2:15 AM 37.4 °F 29.8 °F 37.4 °F 100% 29.79 in 10.0 mi North 11.5 mph - 0.01 in Rain Rain
2:35 AM 39.2 °F 30.5 °F 37.4 °F 93% 29.78 in 4.0 mi NNE 16.1 mph 21.9 mph 0.06 in Rain Heavy Rain
2:55 AM 39.2 °F 31.6 °F 37.4 °F 93% 29.78 in 4.0 mi NNE 12.7 mph 17.3 mph 0.12 in Rain Rain
3:15 AM 39.2 °F 32.0 °F 37.4 °F 93% 29.78 in 3.0 mi NNE 11.5 mph - 0.09 in Rain Rain
3:35 AM 39.2 °F 31.6 °F 37.4 °F 93% 29.77 in 5.0 mi North 12.7 mph 18.4 mph 0.14 in Rain Rain
3:55 AM 39.2 °F 31.2 °F 37.4 °F 93% 29.77 in 4.0 mi North 13.8 mph - 0.19 in Rain Rain
4:15 AM 37.4 °F 28.5 °F 37.4 °F 100% 29.76 in 5.0 mi North 15.0 mph 19.6 mph 0.02 in Rain Rain
4:35 AM 37.4 °F 28.9 °F 35.6 °F 93% 29.74 in 7.0 mi North 13.8 mph 21.9 mph 0.03 in Rain Light Rain
4:55 AM 37.4 °F 28.9 °F 35.6 °F 93% 29.75 in 3.0 mi North 13.8 mph 21.9 mph 0.06 in Rain Rain
5:15 AM 37.4 °F 28.9 °F 35.6 °F 93% 29.74 in 5.0 mi North 13.8 mph 24.2 mph 0.02 in Rain Light Rain
5:35 AM 37.4 °F 28.2 °F 35.6 °F 93% 29.74 in 4.0 mi North 16.1 mph 21.9 mph 0.03 in Rain Rain
5:55 AM 37.4 °F 28.2 °F 35.6 °F 93% 29.73 in 4.0 mi North 16.1 mph 26.5 mph 0.04 in Rain Light Rain
6:15 AM 37.4 °F 27.5 °F 35.6 °F 93% 29.73 in 3.0 mi North 18.4 mph 26.5 mph 0.03 in Rain Light Rain
6:35 AM 37.4 °F 28.2 °F 35.6 °F 93% 29.73 in 3.0 mi NNE 16.1 mph 23.0 mph 0.09 in Rain Rain
6:55 AM 37.4 °F 27.5 °F 35.6 °F 93% 29.72 in 3.0 mi NNE 18.4 mph 23.0 mph 0.13 in Rain Rain
7:15 AM 37.4 °F 28.2 °F 35.6 °F 93% 29.71 in 3.0 mi North 16.1 mph 24.2 mph 0.03 in Rain Rain
7:35 AM 37.4 °F 27.8 °F 35.6 °F 93% 29.72 in 4.0 mi NNE 17.3 mph 23.0 mph 0.04 in Rain Rain
7:55 AM 37.4 °F 28.2 °F 35.6 °F 93% 29.72 in 4.0 mi North 16.1 mph 21.9 mph 0.06 in Rain Rain
8:35 AM 35.6 °F 25.2 °F 33.8 °F 93% 29.72 in 1.8 mi NNE 18.4 mph 31.1 mph 0.06 in Rain Light Rain
8:55 AM 35.6 °F 26.2 °F 33.8 °F 93% 29.72 in 2.0 mi North 15.0 mph 24.2 mph 0.08 in Snow Light Snow
9:35 AM 35.6 °F 25.9 °F 33.8 °F 93% 29.72 in 2.0 mi NNE 16.1 mph 23.0 mph 0.04 in Rain Light Rain
9:55 AM 35.6 °F 24.8 °F 33.8 °F 93% 29.71 in 2.5 mi North 19.6 mph 26.5 mph 0.08 in Rain Rain
10:15 AM 35.6 °F 25.9 °F 33.8 °F 93% 29.71 in 3.0 mi NNE 16.1 mph 21.9 mph 0.01 in Rain Rain
10:35 AM 35.6 °F 24.8 °F 33.8 °F 93% 29.70 in 2.5 mi NNE 19.6 mph 23.0 mph 0.02 in Rain Light Rain
10:55 AM 37.4 °F 28.2 °F 35.6 °F 93% 29.69 in 2.5 mi NNE 16.1 mph 26.5 mph 0.02 in Rain Light Rain
11:15 AM 37.4 °F 26.9 °F 35.6 °F 93% 29.67 in 3.0 mi North 20.7 mph 26.5 mph N/A   Drizzle
11:35 AM 37.4 °F 27.5 °F 35.6 °F 93% 29.66 in 4.0 mi North 18.4 mph 25.3 mph N/A   Drizzle
11:55 AM 37.4 °F 28.5 °F 35.6 °F 93% 29.66 in 5.0 mi NNE 15.0 mph 20.7 mph N/A   Light Drizzle
12:15 PM 37.4 °F 27.5 °F 35.6 °F 93% 29.65 in 2.5 mi North 18.4 mph 25.3 mph 0.01 in Rain Rain
12:35 PM 37.4 °F 28.5 °F 35.6 °F 93% 29.64 in 1.2 mi North 15.0 mph 20.7 mph 0.06 in Rain Light Rain
12:55 PM 37.4 °F 30.3 °F 35.6 °F 93% 29.64 in 1.8 mi North 10.4 mph 20.7 mph 0.09 in Rain Rain
1:15 PM 37.4 °F 33.8 °F 35.6 °F 93% 29.67 in 1.0 mi North 4.6 mph - 0.05 in Rain Rain
1:35 PM 37.4 °F 32.8 °F 35.6 °F 93% 29.68 in 1.2 mi NW 5.8 mph - 0.13 in   Overcast
1:55 PM 35.6 °F - 33.8 °F 93% 29.69 in 1.2 mi Calm Calm - 0.25 in Snow Light Snow
2:15 PM 33.8 °F 28.6 °F 32.0 °F 93% 29.68 in 1.2 mi West 5.8 mph - 0.06 in Snow Light Snow
2:35 PM 33.8 °F 28.6 °F 32.0 °F 93% 29.68 in 1.5 mi West 5.8 mph - 0.10 in Snow Light Snow
2:55 PM 33.8 °F 28.6 °F 32.0 °F 93% 29.69 in 1.5 mi WNW 5.8 mph - 0.14 in Snow Light Snow
3:15 PM 32.0 °F 24.8 °F 32.0 °F 100% 29.68 in 0.8 mi NW 8.1 mph - 0.05 in Snow Light Snow
3:35 PM 32.0 °F 24.2 °F 32.0 °F 100% 29.68 in 0.8 mi NW 9.2 mph - 0.07 in Snow Light Snow
3:55 PM 32.0 °F 24.2 °F 32.0 °F 100% 29.68 in 1.2 mi NW 9.2 mph - 0.09 in Snow Light Snow
4:15 PM 33.8 °F 27.0 °F 32.0 °F 93% 29.69 in 1.5 mi NW 8.1 mph - 0.02 in Snow Light Snow
4:35 PM 32.0 °F 24.2 °F 32.0 °F 100% 29.69 in 1.0 mi NW 9.2 mph - 0.04 in Snow Snow
4:55 PM 33.8 °F 26.4 °F 32.0 °F 93% 29.68 in 1.2 mi NW 9.2 mph - 0.05 in Snow Light Snow
5:15 PM 33.8 °F 26.4 °F 32.0 °F 93% 29.68 in 4.0 mi NNW 9.2 mph - N/A Snow Light Snow
5:35 PM 33.8 °F 24.3 °F 32.0 °F 93% 29.68 in 4.0 mi NNW 13.8 mph 20.7 mph N/A Snow Light Snow
6:15 PM 33.8 °F 23.9 °F 32.0 °F 93% 29.69 in 5.0 mi NNW 15.0 mph 24.2 mph N/A Snow Light Snow
7:15 PM 33.8 °F 24.8 °F 32.0 °F 93% 29.70 in 1.2 mi NNW 12.7 mph 23.0 mph N/A Snow Light Snow
7:35 PM 33.8 °F 23.5 °F 32.0 °F 93% 29.71 in 1.2 mi NNW 16.1 mph 21.9 mph N/A Snow Light Snow
7:55 PM 33.8 °F 24.8 °F 32.0 °F 93% 29.72 in 0.8 mi NNW 12.7 mph 18.4 mph 0.01 in Snow Snow
8:15 PM 33.8 °F 24.3 °F 32.0 °F 93% 29.72 in 1.0 mi NNW 13.8 mph 21.9 mph 0.01 in Snow Snow
8:35 PM 33.8 °F 23.9 °F 32.0 °F 93% 29.73 in 1.2 mi NNW 15.0 mph 20.7 mph 0.01 in Snow Light Snow
8:55 PM 33.8 °F 24.8 °F 32.0 °F 93% 29.73 in 0.8 mi NNW 12.7 mph 23.0 mph 0.01 in Snow Snow
9:15 PM 33.8 °F 24.8 °F 32.0 °F 93% 29.74 in 1.0 mi NNW 12.7 mph 21.9 mph N/A Snow Snow
9:35 PM 32.0 °F 23.6 °F 32.0 °F 100% 29.74 in 0.8 mi NW 10.4 mph 16.1 mph N/A Snow Snow
9:55 PM 33.8 °F 24.3 °F 32.0 °F 93% 29.74 in 1.5 mi NNW 13.8 mph 19.6 mph N/A Snow Light Snow
10:15 PM 32.0 °F 22.5 °F 32.0 °F 100% 29.75 in 1.2 mi NNW 12.7 mph 18.4 mph N/A Snow Light Snow
10:55 PM 32.0 °F 22.5 °F 32.0 °F 100% 29.75 in 1.2 mi NNW 12.7 mph 20.7 mph N/A Snow Light Snow
11:15 PM 32.0 °F 23.6 °F 32.0 °F 100% 29.76 in 1.2 mi NW 10.4 mph 18.4 mph N/A Snow Light Snow
11:35 PM 32.0 °F 23.0 °F 32.0 °F 100% 29.76 in 2.0 mi NW 11.5 mph 19.6 mph N/A Snow Light Snow
11:55 PM 32.0 °F 24.2 °F 30.2 °F 93% 29.77 in 7.0 mi NW 9.2 mph - N/A Snow Light Snow